createdAt,value
2018-09-08T00:00:03.431Z,0
2018-09-08T00:01:03.843Z,0
2018-09-08T00:02:04.258Z,0
2018-09-08T00:03:04.673Z,0
2018-09-08T00:04:05.641Z,0
2018-09-08T00:05:06.055Z,0
2018-09-08T00:06:06.468Z,0
2018-09-08T00:07:06.885Z,0
2018-09-08T00:08:07.869Z,0
2018-09-08T00:09:08.842Z,0
2018-09-08T00:10:08.979Z,0
2018-09-08T00:11:09.672Z,0
2018-09-08T00:12:10.088Z,0
2018-09-08T00:13:10.499Z,0
2018-09-08T00:14:10.639Z,0
2018-09-08T00:15:11.328Z,0
2018-09-08T00:16:11.464Z,0
2018-09-08T00:17:11.877Z,0
2018-09-08T00:18:12.417Z,0
2018-09-08T00:19:12.831Z,0
2018-09-08T00:20:13.249Z,0
2018-09-08T00:21:13.660Z,0
2018-09-08T00:22:14.076Z,0
2018-09-08T00:23:14.213Z,0
2018-09-08T00:24:14.348Z,0
2018-09-08T00:25:14.760Z,0
2018-09-08T00:26:15.509Z,0
2018-09-08T00:27:15.919Z,0
2018-09-08T00:28:15.912Z,0
2018-09-08T00:29:16.878Z,0
2018-09-08T00:30:17.293Z,0
2018-09-08T00:31:17.989Z,0
2018-09-08T00:32:18.127Z,0
2018-09-08T00:33:18.262Z,0
2018-09-08T00:34:18.678Z,0
2018-09-08T00:35:19.371Z,0
2018-09-08T00:36:19.789Z,0
2018-09-08T00:37:20.482Z,0
2018-09-08T00:38:21.388Z,0
2018-09-08T00:39:21.084Z,0
2018-09-08T00:40:21.223Z,0
2018-09-08T00:41:21.358Z,0
2018-09-08T00:42:21.495Z,0
2018-09-08T00:43:21.928Z,0
2018-09-08T00:44:22.063Z,0
2018-09-08T00:45:22.208Z,0
2018-09-08T00:46:23.455Z,0
2018-09-08T00:47:24.148Z,0
2018-09-08T00:48:24.693Z,0
2018-09-08T00:49:24.828Z,0
2018-09-08T00:50:25.799Z,0
2018-09-08T00:51:26.211Z,0
2018-09-08T00:52:26.346Z,0
2018-09-08T00:53:26.480Z,0
2018-09-08T00:54:26.891Z,0
2018-09-08T00:55:27.027Z,0
2018-09-08T00:56:27.442Z,0
2018-09-08T00:57:27.856Z,0
2018-09-08T00:58:27.846Z,0
2018-09-08T00:59:28.541Z,0
2018-09-08T01:00:29.234Z,0
2018-09-08T01:01:29.648Z,0
2018-09-08T01:02:30.062Z,0
2018-09-08T01:03:30.475Z,0
2018-09-08T01:04:31.169Z,0
2018-09-08T01:05:31.863Z,0
2018-09-08T01:06:32.274Z,0
2018-09-08T01:07:33.012Z,0
2018-09-08T01:08:32.998Z,0
2018-09-08T01:09:33.414Z,0
2018-09-08T01:10:33.551Z,0
2018-09-08T01:11:33.688Z,0
2018-09-08T01:12:33.823Z,0
2018-09-08T01:13:34.240Z,0
2018-09-08T01:14:34.654Z,0
2018-09-08T01:15:34.788Z,0
2018-09-08T01:16:34.926Z,0
2018-09-08T01:17:35.092Z,0
2018-09-08T01:18:35.916Z,0
2018-09-08T01:19:36.336Z,0
2018-09-08T01:20:36.476Z,0
2018-09-08T01:21:36.614Z,0
2018-09-08T01:22:37.584Z,0
2018-09-08T01:23:37.722Z,0
2018-09-08T01:24:38.413Z,0
2018-09-08T01:25:39.382Z,0
2018-09-08T01:26:39.518Z,0
2018-09-08T01:27:39.935Z,0
2018-09-08T01:28:40.643Z,0
2018-09-08T01:29:41.334Z,0
2018-09-08T01:30:41.748Z,0
2018-09-08T01:31:42.162Z,0
2018-09-08T01:32:42.860Z,0
2018-09-08T01:33:43.274Z,0
2018-09-08T01:34:43.688Z,0
2018-09-08T01:35:44.104Z,0
2018-09-08T01:36:44.241Z,0
2018-09-08T01:37:44.933Z,0
2018-09-08T01:38:45.948Z,0
2018-09-08T01:39:46.360Z,0
2018-09-08T01:40:46.495Z,0
2018-09-08T01:41:46.908Z,0
2018-09-08T01:42:47.318Z,0
2018-09-08T01:43:47.730Z,0
2018-09-08T01:44:48.423Z,0
2018-09-08T01:45:48.836Z,0
2018-09-08T01:46:49.531Z,0
2018-09-08T01:47:50.220Z,0
2018-09-08T01:48:50.205Z,0
2018-09-08T01:49:50.618Z,0
2018-09-08T01:50:50.754Z,0
2018-09-08T01:51:51.452Z,0
2018-09-08T01:52:52.140Z,0
2018-09-08T01:53:52.552Z,0
2018-09-08T01:54:52.690Z,0
2018-09-08T01:55:53.105Z,0
2018-09-08T01:56:53.240Z,0
2018-09-08T01:57:53.374Z,0
2018-09-08T01:58:54.638Z,0
2018-09-08T01:59:55.056Z,0
2018-09-08T02:00:55.743Z,0
2018-09-08T02:01:56.156Z,0
2018-09-08T02:02:56.291Z,0
2018-09-08T02:03:56.983Z,0
2018-09-08T02:04:57.675Z,0
2018-09-08T02:05:58.647Z,0
2018-09-08T02:06:59.655Z,0
2018-09-08T02:08:00.068Z,0
2018-09-08T02:09:00.053Z,0
2018-09-08T02:10:00.745Z,0
2018-09-08T02:11:01.437Z,0
2018-09-08T02:12:01.848Z,0
2018-09-08T02:13:02.260Z,0
2018-09-08T02:14:02.956Z,0
2018-09-08T02:15:03.647Z,0
2018-09-08T02:16:04.339Z,0
2018-09-08T02:17:04.755Z,0
2018-09-08T02:18:05.446Z,0
2018-09-08T02:19:05.989Z,0
2018-09-08T02:20:06.399Z,0
2018-09-08T02:21:07.092Z,0
2018-09-08T02:22:07.504Z,0
2018-09-08T02:23:07.641Z,0
2018-09-08T02:24:07.776Z,0
2018-09-08T02:25:07.911Z,0
2018-09-08T02:26:08.326Z,0
2018-09-08T02:27:08.740Z,0
2018-09-08T02:28:09.433Z,0
2018-09-08T02:29:09.977Z,0
2018-09-08T02:30:10.952Z,0
2018-09-08T02:31:10.646Z,0
2018-09-08T02:32:11.056Z,0
2018-09-08T02:33:11.472Z,0
2018-09-08T02:34:11.882Z,0
2018-09-08T02:35:12.297Z,0
2018-09-08T02:36:12.987Z,0
2018-09-08T02:37:13.680Z,0
2018-09-08T02:38:14.372Z,0
2018-09-08T02:39:15.082Z,0
2018-09-08T02:40:15.513Z,0
2018-09-08T02:41:16.753Z,0
2018-09-08T02:42:16.889Z,0
2018-09-08T02:43:17.302Z,0
2018-09-08T02:44:17.435Z,0
2018-09-08T02:45:18.128Z,0
2018-09-08T02:46:18.265Z,0
2018-09-08T02:47:18.957Z,0
2018-09-08T02:48:19.094Z,0
2018-09-08T02:49:19.634Z,0
2018-09-08T02:50:19.782Z,0
2018-09-08T02:51:20.200Z,0
2018-09-08T02:52:20.893Z,0
2018-09-08T02:53:21.584Z,0
2018-09-08T02:54:21.999Z,0
2018-09-08T02:55:22.699Z,0
2018-09-08T02:56:23.112Z,0
2018-09-08T02:57:23.528Z,0
2018-09-08T02:58:23.663Z,0
2018-09-08T02:59:25.204Z,0
2018-09-08T03:00:25.626Z,0
2018-09-08T03:01:26.316Z,0
2018-09-08T03:02:27.014Z,0
2018-09-08T03:03:27.425Z,0
2018-09-08T03:04:27.835Z,0
2018-09-08T03:05:28.528Z,0
2018-09-08T03:06:28.942Z,0
2018-09-08T03:07:29.085Z,0
2018-09-08T03:08:29.501Z,0
2018-09-08T03:09:29.490Z,0
2018-09-08T03:10:30.178Z,0
2018-09-08T03:11:30.874Z,0
2018-09-08T03:12:31.291Z,0
2018-09-08T03:13:31.988Z,0
2018-09-08T03:14:32.129Z,0
2018-09-08T03:15:32.540Z,0
2018-09-08T03:16:32.689Z,0
2018-09-08T03:17:33.103Z,0
2018-09-08T03:18:33.239Z,0
2018-09-08T03:19:34.376Z,0
2018-09-08T03:20:34.345Z,0
2018-09-08T03:21:35.037Z,0
2018-09-08T03:22:35.451Z,0
2018-09-08T03:23:35.864Z,0
2018-09-08T03:24:36.282Z,0
2018-09-08T03:25:36.415Z,0
2018-09-08T03:26:36.828Z,0
2018-09-08T03:27:37.520Z,0
2018-09-08T03:28:37.658Z,0
2018-09-08T03:29:38.651Z,0
2018-09-08T03:30:39.069Z,0
2018-09-08T03:31:39.766Z,0
2018-09-08T03:32:40.176Z,0
2018-09-08T03:33:41.145Z,0
2018-09-08T03:34:41.836Z,0
2018-09-08T03:35:41.975Z,0
2018-09-08T03:36:42.110Z,0
2018-09-08T03:37:42.797Z,0
2018-09-08T03:38:42.932Z,0
2018-09-08T03:39:44.206Z,0
2018-09-08T03:40:44.335Z,0
2018-09-08T03:41:45.028Z,0
2018-09-08T03:42:45.162Z,0
2018-09-08T03:43:45.576Z,0
2018-09-08T03:44:46.554Z,0
2018-09-08T03:45:46.242Z,0
2018-09-08T03:46:46.656Z,0
2018-09-08T03:47:46.790Z,0
2018-09-08T03:48:47.202Z,0
2018-09-08T03:49:47.187Z,0
2018-09-08T03:50:47.876Z,0
2018-09-08T03:51:48.295Z,0
2018-09-08T03:52:48.703Z,0
2018-09-08T03:53:49.116Z,0
2018-09-08T03:54:49.529Z,0
2018-09-08T03:55:49.664Z,0
2018-09-08T03:56:50.078Z,0
2018-09-08T03:57:50.765Z,0
2018-09-08T03:58:51.264Z,0
2018-09-08T03:59:51.807Z,0
2018-09-08T04:00:52.774Z,0
2018-09-08T04:01:53.464Z,0
2018-09-08T04:02:53.874Z,0
2018-09-08T04:03:54.285Z,0
2018-09-08T04:04:54.696Z,0
2018-09-08T04:05:55.388Z,0
2018-09-08T04:06:55.796Z,0
2018-09-08T04:07:56.206Z,0
2018-09-08T04:08:56.336Z,0
2018-09-08T04:09:56.599Z,0
2018-09-08T04:10:57.010Z,0
2018-09-08T04:11:57.420Z,0
2018-09-08T04:12:57.831Z,0
2018-09-08T04:13:57.965Z,0
2018-09-08T04:14:58.377Z,0
2018-09-08T04:15:58.791Z,0
2018-09-08T04:16:59.497Z,0
2018-09-08T04:17:59.990Z,0
2018-09-08T04:19:00.394Z,0
2018-09-08T04:20:01.380Z,0
2018-09-08T04:21:02.073Z,0
2018-09-08T04:22:02.482Z,0
2018-09-08T04:23:02.614Z,0
2018-09-08T04:24:03.491Z,0
2018-09-08T04:25:03.739Z,0
2018-09-08T04:26:04.159Z,0
2018-09-08T04:27:04.565Z,0
2018-09-08T04:28:04.700Z,0
2018-09-08T04:29:05.108Z,0
2018-09-08T04:30:06.034Z,0
2018-09-08T04:31:06.447Z,0
2018-09-08T04:32:06.862Z,0
2018-09-08T04:33:07.271Z,0
2018-09-08T04:34:07.969Z,0
2018-09-08T04:35:08.375Z,0
2018-09-08T04:36:08.788Z,0
2018-09-08T04:37:09.477Z,0
2018-09-08T04:38:10.166Z,0
2018-09-08T04:39:10.299Z,0
2018-09-08T04:40:10.565Z,0
2018-09-08T04:41:10.976Z,0
2018-09-08T04:42:11.665Z,0
2018-09-08T04:43:12.077Z,0
2018-09-08T04:44:12.209Z,0
2018-09-08T04:45:13.177Z,0
2018-09-08T04:46:13.312Z,5.63
2018-09-08T04:47:13.724Z,5.63
2018-09-08T04:48:13.857Z,5.63
2018-09-08T04:49:14.491Z,5.63
2018-09-08T04:50:14.674Z,5.63
2018-09-08T04:51:15.364Z,5.63
2018-09-08T04:52:16.053Z,5.63
2018-09-08T04:53:16.745Z,5.63
2018-09-08T04:54:16.878Z,5.63
2018-09-08T04:55:17.293Z,11.25
2018-09-08T04:56:17.984Z,11.25
2018-09-08T04:57:18.123Z,11.25
2018-09-08T04:58:18.536Z,11.25
2018-09-08T04:59:19.229Z,11.25
2018-09-08T05:00:20.495Z,11.25
2018-09-08T05:01:20.907Z,11.25
2018-09-08T05:02:22.025Z,11.25
2018-09-08T05:03:21.159Z,16.88
2018-09-08T05:04:21.568Z,16.88
2018-09-08T05:05:21.980Z,16.88
2018-09-08T05:06:22.672Z,16.88
2018-09-08T05:07:23.645Z,16.88
2018-09-08T05:08:24.060Z,16.88
2018-09-08T05:09:24.472Z,16.88
2018-09-08T05:10:25.458Z,22.5
2018-09-08T05:11:25.594Z,22.5
2018-09-08T05:12:26.286Z,22.5
2018-09-08T05:13:26.423Z,22.5
2018-09-08T05:14:26.564Z,22.5
2018-09-08T05:15:26.695Z,22.5
2018-09-08T05:16:26.831Z,22.5
2018-09-08T05:17:27.524Z,22.5
2018-09-08T05:18:27.940Z,22.5
2018-09-08T05:19:28.356Z,22.5
2018-09-08T05:20:29.620Z,28.13
2018-09-08T05:21:30.036Z,28.13
2018-09-08T05:22:30.726Z,28.13
2018-09-08T05:24:02.974Z,28.13
2018-09-08T05:24:31.390Z,28.13
2018-09-08T05:25:31.807Z,28.13
2018-09-08T05:26:31.945Z,28.13
2018-09-08T05:27:32.635Z,33.75
2018-09-08T05:28:33.559Z,33.75
2018-09-08T05:29:33.894Z,33.75
2018-09-08T05:30:34.437Z,39.38
2018-09-08T05:31:34.574Z,39.38
2018-09-08T05:32:35.262Z,39.38
2018-09-08T05:33:36.233Z,39.38
2018-09-08T05:34:36.368Z,39.38
2018-09-08T05:35:36.783Z,39.38
2018-09-08T05:36:37.475Z,39.38
2018-09-08T05:37:38.166Z,45
2018-09-08T05:38:38.857Z,45
2018-09-08T05:39:39.273Z,45
2018-09-08T05:40:39.255Z,45
2018-09-08T05:41:39.392Z,45
2018-09-08T05:42:40.082Z,45
2018-09-08T05:43:40.499Z,45
2018-09-08T05:44:40.916Z,45
2018-09-08T05:45:41.612Z,45
2018-09-08T05:46:42.301Z,45
2018-09-08T05:47:42.438Z,45
2018-09-08T05:48:43.141Z,45
2018-09-08T05:49:43.543Z,45
2018-09-08T05:50:43.530Z,45
2018-09-08T05:51:44.777Z,45
2018-09-08T05:52:45.469Z,50.63
2018-09-08T05:53:45.883Z,50.63
2018-09-08T05:54:46.572Z,50.63
2018-09-08T05:55:46.711Z,56.25
2018-09-08T05:56:47.129Z,56.25
2018-09-08T05:57:47.821Z,56.25
2018-09-08T05:58:48.510Z,56.25
2018-09-08T05:59:48.646Z,61.88
2018-09-08T06:00:49.908Z,61.88
2018-09-08T06:01:50.326Z,67.5
2018-09-08T06:02:50.736Z,73.13
2018-09-08T06:03:51.431Z,73.13
2018-09-08T06:04:51.845Z,78.75
2018-09-08T06:05:52.260Z,78.75
2018-09-08T06:06:52.395Z,78.75
2018-09-08T06:07:52.807Z,84.38
2018-09-08T06:08:53.227Z,84.38
2018-09-08T06:09:53.924Z,90
2018-09-08T06:10:54.054Z,84.38
2018-09-08T06:11:55.304Z,84.38
2018-09-08T06:12:56.275Z,90
2018-09-08T06:13:56.691Z,90
2018-09-08T06:14:56.829Z,90
2018-09-08T06:15:57.524Z,90
2018-09-08T06:16:58.242Z,90
2018-09-08T06:17:58.379Z,90
2018-09-08T06:18:59.073Z,90
2018-09-08T06:19:59.767Z,95.63
2018-09-08T06:21:00.033Z,95.63
2018-09-08T06:22:00.446Z,95.63
2018-09-08T06:23:00.861Z,106.88
2018-09-08T06:24:00.998Z,112.5
2018-09-08T06:25:01.692Z,129.38
2018-09-08T06:26:02.110Z,146.25
2018-09-08T06:27:02.804Z,140.63
2018-09-08T06:28:02.945Z,163.13
2018-09-08T06:29:03.916Z,174.38
2018-09-08T06:30:04.057Z,157.5
2018-09-08T06:31:04.763Z,253.13
2018-09-08T06:32:05.179Z,275.63
2018-09-08T06:33:05.596Z,180
2018-09-08T06:34:05.739Z,185.63
2018-09-08T06:35:06.594Z,174.38
2018-09-08T06:36:06.957Z,168.75
2018-09-08T06:37:07.100Z,236.25
2018-09-08T06:38:07.237Z,213.75
2018-09-08T06:39:08.233Z,196.88
2018-09-08T06:40:08.208Z,180
2018-09-08T06:41:08.471Z,151.88
2018-09-08T06:42:08.925Z,202.5
2018-09-08T06:43:09.318Z,247.5
2018-09-08T06:44:10.015Z,191.25
2018-09-08T06:45:10.986Z,174.38
2018-09-08T06:46:11.326Z,185.63
2018-09-08T06:47:12.302Z,157.5
2018-09-08T06:48:12.444Z,157.5
2018-09-08T06:49:12.863Z,157.5
2018-09-08T06:50:13.004Z,185.63
2018-09-08T06:51:13.548Z,253.13
2018-09-08T06:52:14.420Z,219.38
2018-09-08T06:53:14.179Z,146.25
2018-09-08T06:54:15.170Z,151.88
2018-09-08T06:55:15.877Z,140.63
2018-09-08T06:56:16.574Z,129.38
2018-09-08T06:57:16.993Z,163.13
2018-09-08T06:58:17.689Z,157.5
2018-09-08T06:59:18.109Z,118.13
2018-09-08T07:00:18.525Z,118.13
2018-09-08T07:01:19.517Z,123.75
2018-09-08T07:02:19.659Z,157.5
2018-09-08T07:03:20.217Z,151.88
2018-09-08T07:04:20.597Z,202.5
2018-09-08T07:05:20.740Z,168.75
2018-09-08T07:06:20.881Z,151.88
2018-09-08T07:07:21.300Z,163.13
2018-09-08T07:08:21.997Z,146.25
2018-09-08T07:09:22.692Z,185.63
2018-09-08T07:10:23.109Z,146.25
2018-09-08T07:11:23.821Z,157.5
2018-09-08T07:12:24.517Z,163.13
2018-09-08T07:13:24.934Z,163.13
2018-09-08T07:14:25.354Z,157.5
2018-09-08T07:15:25.495Z,151.88
2018-09-08T07:16:25.634Z,163.13
2018-09-08T07:17:25.773Z,168.75
2018-09-08T07:18:26.749Z,157.5
2018-09-08T07:19:27.442Z,151.88
2018-09-08T07:20:27.582Z,157.5
2018-09-08T07:21:27.608Z,146.25
2018-09-08T07:22:28.583Z,140.63
2018-09-08T07:23:28.729Z,140.63
2018-09-08T07:24:28.864Z,151.88
2018-09-08T07:25:29.006Z,151.88
2018-09-08T07:26:29.700Z,196.88
2018-09-08T07:27:29.841Z,146.25
2018-09-08T07:28:30.261Z,196.88
2018-09-08T07:29:30.401Z,202.5
2018-09-08T07:30:31.094Z,196.88
2018-09-08T07:31:31.085Z,191.25
2018-09-08T07:32:31.783Z,208.13
2018-09-08T07:33:32.480Z,213.75
2018-09-08T07:34:32.901Z,219.38
2018-09-08T07:35:33.874Z,208.13
2018-09-08T07:36:34.294Z,225
2018-09-08T07:37:34.430Z,225
2018-09-08T07:38:35.130Z,213.75
2018-09-08T07:39:35.546Z,208.13
2018-09-08T07:40:35.963Z,219.38
2018-09-08T07:41:36.678Z,264.38
2018-09-08T07:42:37.097Z,382.5
2018-09-08T07:43:37.520Z,523.13
2018-09-08T07:44:38.498Z,315
2018-09-08T07:45:39.191Z,270
2018-09-08T07:46:39.890Z,281.25
2018-09-08T07:47:40.030Z,270
2018-09-08T07:48:40.172Z,309.38
2018-09-08T07:49:40.593Z,258.75
2018-09-08T07:50:41.291Z,253.13
2018-09-08T07:51:41.282Z,247.5
2018-09-08T07:52:41.978Z,236.25
2018-09-08T07:53:43.876Z,241.88
2018-09-08T07:54:42.640Z,258.75
2018-09-08T07:55:43.632Z,253.13
2018-09-08T07:56:43.773Z,264.38
2018-09-08T07:57:43.912Z,230.63
2018-09-08T07:58:44.332Z,241.88
2018-09-08T07:59:44.752Z,230.63
2018-09-08T08:00:45.169Z,236.25
2018-09-08T08:01:45.162Z,236.25
2018-09-08T08:02:45.582Z,241.88
2018-09-08T08:03:46.557Z,247.5
2018-09-08T08:04:46.980Z,258.75
2018-09-08T08:05:48.229Z,264.38
2018-09-08T08:06:48.847Z,286.88
2018-09-08T08:07:48.654Z,303.75
2018-09-08T08:08:48.797Z,303.75
2018-09-08T08:09:49.214Z,331.88
2018-09-08T08:10:49.355Z,315
2018-09-08T08:11:50.624Z,286.88
2018-09-08T08:12:51.043Z,275.63
2018-09-08T08:13:51.739Z,264.38
2018-09-08T08:14:51.879Z,258.75
2018-09-08T08:15:52.023Z,264.38
2018-09-08T08:16:52.720Z,286.88
2018-09-08T08:17:53.415Z,286.88
2018-09-08T08:18:53.556Z,281.25
2018-09-08T08:19:54.593Z,309.38
2018-09-08T08:20:54.013Z,320.63
2018-09-08T08:21:54.285Z,298.13
2018-09-08T08:22:54.705Z,270
2018-09-08T08:23:54.844Z,241.88
2018-09-08T08:24:55.263Z,241.88
2018-09-08T08:25:55.960Z,225
2018-09-08T08:26:56.659Z,213.75
2018-09-08T08:27:57.081Z,208.13
2018-09-08T08:28:57.503Z,208.13
2018-09-08T08:29:57.920Z,196.88
2018-09-08T08:30:58.377Z,219.38
2018-09-08T08:31:59.331Z,236.25
2018-09-08T08:32:59.473Z,258.75
2018-09-08T08:33:59.890Z,258.75
2018-09-08T08:35:00.029Z,241.88
2018-09-08T08:36:00.729Z,225
2018-09-08T08:37:01.494Z,213.75
2018-09-08T08:38:01.570Z,213.75
2018-09-08T08:39:01.716Z,213.75
2018-09-08T08:40:01.851Z,225
2018-09-08T08:41:02.271Z,253.13
2018-09-08T08:42:02.990Z,270
2018-09-08T08:43:03.685Z,286.88
2018-09-08T08:44:04.662Z,298.13
2018-09-08T08:45:05.078Z,303.75
2018-09-08T08:46:05.501Z,292.5
2018-09-08T08:47:06.196Z,286.88
2018-09-08T08:48:06.614Z,275.63
2018-09-08T08:49:06.804Z,281.25
2018-09-08T08:50:07.499Z,281.25
2018-09-08T08:51:08.473Z,275.63
2018-09-08T08:52:09.298Z,275.63
2018-09-08T08:53:09.725Z,281.25
2018-09-08T08:54:10.147Z,292.5
2018-09-08T08:55:10.292Z,315
2018-09-08T08:56:10.707Z,315
2018-09-08T08:57:11.436Z,298.13
2018-09-08T08:58:11.412Z,309.38
2018-09-08T08:59:12.108Z,331.88
2018-09-08T09:00:12.527Z,337.5
2018-09-08T09:01:12.952Z,331.88
2018-09-08T09:02:14.777Z,326.25
2018-09-08T09:03:14.485Z,326.25
2018-09-08T09:04:15.462Z,331.88
2018-09-08T09:05:15.924Z,343.13
2018-09-08T09:06:16.298Z,337.5
2018-09-08T09:07:17.475Z,354.38
2018-09-08T09:08:18.156Z,382.5
2018-09-08T09:09:17.802Z,427.5
2018-09-08T09:10:18.222Z,433.13
2018-09-08T09:11:18.368Z,399.38
2018-09-08T09:12:18.829Z,360
2018-09-08T09:13:20.047Z,337.5
2018-09-08T09:14:20.090Z,365.63
2018-09-08T09:15:23.394Z,967.5
2018-09-08T09:16:21.255Z,973.13
2018-09-08T09:17:21.399Z,871.88
2018-09-08T09:18:23.157Z,1704.38
2018-09-08T09:19:22.579Z,2036.25
2018-09-08T09:20:22.725Z,2025
2018-09-08T09:21:23.429Z,1985.63
2018-09-08T09:22:24.422Z,1968.75
2018-09-08T09:23:25.275Z,1906.88
2018-09-08T09:24:26.753Z,1771.88
2018-09-08T09:25:26.965Z,770.63
2018-09-08T09:26:27.397Z,1665
2018-09-08T09:27:27.821Z,1749.38
2018-09-08T09:28:28.246Z,1456.88
2018-09-08T09:29:28.675Z,967.5
2018-09-08T09:30:29.936Z,1243.13
2018-09-08T09:31:30.359Z,821.25
2018-09-08T09:32:31.352Z,472.5
2018-09-08T09:33:31.775Z,427.5
2018-09-08T09:34:32.478Z,348.75
2018-09-08T09:35:33.463Z,303.75
2018-09-08T09:36:33.881Z,298.13
2018-09-08T09:37:34.863Z,309.38
2018-09-08T09:38:35.286Z,320.63
2018-09-08T09:39:35.709Z,309.38
2018-09-08T09:40:36.688Z,326.25
2018-09-08T09:41:36.387Z,354.38
2018-09-08T09:42:36.383Z,410.63
2018-09-08T09:43:36.806Z,933.75
2018-09-08T09:44:37.230Z,1940.63
2018-09-08T09:45:37.656Z,2148.75
2018-09-08T09:46:38.090Z,1276.88
2018-09-08T09:47:38.790Z,444.38
2018-09-08T09:48:39.213Z,427.5
2018-09-08T09:49:39.379Z,320.63
2018-09-08T09:50:39.803Z,320.63
2018-09-08T09:51:40.498Z,326.25
2018-09-08T09:52:41.048Z,348.75
2018-09-08T09:53:41.473Z,388.13
2018-09-08T09:54:41.894Z,326.25
2018-09-08T09:55:42.592Z,320.63
2018-09-08T09:56:43.017Z,331.88
2018-09-08T09:57:43.438Z,331.88
2018-09-08T09:58:43.860Z,343.13
2018-09-08T09:59:44.004Z,421.88
2018-09-08T10:00:44.148Z,517.5
2018-09-08T10:01:44.851Z,444.38
2018-09-08T10:02:45.125Z,320.63
2018-09-08T10:03:45.267Z,247.5
2018-09-08T10:04:45.968Z,247.5
2018-09-08T10:05:46.667Z,236.25
2018-09-08T10:06:46.812Z,236.25
2018-09-08T10:07:47.231Z,241.88
2018-09-08T10:08:47.932Z,253.13
2018-09-08T10:09:48.906Z,382.5
2018-09-08T10:10:49.049Z,821.25
2018-09-08T10:11:49.751Z,855
2018-09-08T10:12:49.467Z,399.38
2018-09-08T10:13:49.884Z,579.38
2018-09-08T10:14:50.581Z,270
2018-09-08T10:15:51.284Z,247.5
2018-09-08T10:16:51.428Z,258.75
2018-09-08T10:17:51.859Z,320.63
2018-09-08T10:18:52.842Z,2250
2018-09-08T10:19:53.268Z,2261.25
2018-09-08T10:20:54.245Z,495
2018-09-08T10:21:53.664Z,883.13
2018-09-08T10:22:55.384Z,2385
2018-09-08T10:24:06.753Z,2250
2018-09-08T10:24:55.175Z,2300.63
2018-09-08T10:25:56.156Z,1974.38
2018-09-08T10:26:56.584Z,393.75
2018-09-08T10:27:57.001Z,326.25
2018-09-08T10:28:57.704Z,281.25
2018-09-08T10:29:58.317Z,264.38
2018-09-08T10:30:58.872Z,331.88
2018-09-08T10:31:59.015Z,590.63
2018-09-08T10:33:00.563Z,1091.25
2018-09-08T10:34:01.264Z,2390.63
2018-09-08T10:35:01.689Z,2379.38
2018-09-08T10:36:01.835Z,2115
2018-09-08T10:37:01.980Z,2385
2018-09-08T10:38:02.126Z,1816.88
2018-09-08T10:39:02.271Z,613.13
2018-09-08T10:40:02.694Z,461.25
2018-09-08T10:41:03.395Z,433.13
2018-09-08T10:42:04.096Z,438.75
2018-09-08T10:43:04.090Z,1670.63
2018-09-08T10:44:05.070Z,528.75
2018-09-08T10:45:05.493Z,427.5
2018-09-08T10:46:05.640Z,950.63
2018-09-08T10:47:06.066Z,1951.88
2018-09-08T10:48:07.092Z,1215
2018-09-08T10:49:07.517Z,500.63
2018-09-08T10:50:07.938Z,337.5
2018-09-08T10:51:08.362Z,371.25
2018-09-08T10:52:08.508Z,2379.38
2018-09-08T10:53:09.782Z,2210.63
2018-09-08T10:54:09.932Z,2160
2018-09-08T10:55:11.242Z,2103.75
2018-09-08T10:56:10.665Z,2098.13
2018-09-08T10:57:10.810Z,596.25
2018-09-08T10:58:10.957Z,916.88
2018-09-08T10:59:11.102Z,922.5
2018-09-08T11:00:11.528Z,1018.13
2018-09-08T11:01:12.244Z,2233.13
2018-09-08T11:02:14.948Z,1209.38
2018-09-08T11:03:12.865Z,731.25
2018-09-08T11:04:13.009Z,2317.5
2018-09-08T11:05:13.436Z,675
2018-09-08T11:06:14.139Z,275.63
2018-09-08T11:07:15.120Z,286.88
2018-09-08T11:08:15.544Z,303.75
2018-09-08T11:09:15.690Z,275.63
2018-09-08T11:10:16.115Z,292.5
2018-09-08T11:11:16.811Z,292.5
2018-09-08T11:12:17.512Z,405
2018-09-08T11:13:17.785Z,2182.5
2018-09-08T11:14:18.489Z,2379.38
2018-09-08T11:15:19.194Z,2362.5
2018-09-08T11:16:19.340Z,2317.5
2018-09-08T11:17:20.041Z,2238.75
2018-09-08T11:18:21.022Z,2216.25
2018-09-08T11:19:21.447Z,2176.88
2018-09-08T11:20:21.873Z,2193.75
2018-09-08T11:21:22.031Z,2238.75
2018-09-08T11:22:22.167Z,2261.25
2018-09-08T11:23:23.000Z,2300.63
2018-09-08T11:24:23.425Z,2323.13
2018-09-08T11:25:23.573Z,2317.5
2018-09-08T11:26:23.996Z,2311.88
2018-09-08T11:27:24.699Z,2306.25
2018-09-08T11:28:25.128Z,2233.13
2018-09-08T11:29:25.555Z,2188.13
2018-09-08T11:30:26.326Z,2216.25
2018-09-08T11:31:27.070Z,2255.63
2018-09-08T11:32:27.776Z,2227.5
2018-09-08T11:33:28.333Z,2244.38
2018-09-08T11:34:29.047Z,2261.25
2018-09-08T11:35:29.472Z,2317.5
2018-09-08T11:36:30.456Z,2351.25
2018-09-08T11:37:30.889Z,2390.63
2018-09-08T11:38:32.916Z,2396.25
2018-09-08T11:39:31.408Z,2385
2018-09-08T11:40:31.835Z,2407.5
2018-09-08T11:41:32.264Z,2396.25
2018-09-08T11:42:32.693Z,2368.13
2018-09-08T11:43:33.694Z,2317.5
2018-09-08T11:44:34.400Z,2255.63
2018-09-08T11:45:34.830Z,2171.25
2018-09-08T11:46:35.535Z,2137.5
2018-09-08T11:47:36.519Z,2143.13
2018-09-08T11:48:36.671Z,2188.13
2018-09-08T11:49:37.652Z,2221.88
2018-09-08T11:50:37.487Z,2233.13
2018-09-08T11:51:37.916Z,2227.5
2018-09-08T11:52:38.344Z,2227.5
2018-09-08T11:53:39.064Z,2227.5
2018-09-08T11:54:39.489Z,2261.25
2018-09-08T11:55:40.481Z,2261.25
2018-09-08T11:56:40.550Z,2238.75
2018-09-08T11:57:41.251Z,2210.63
2018-09-08T11:58:41.680Z,2188.13
2018-09-08T11:59:42.680Z,2160
2018-09-08T12:00:43.092Z,2182.5
2018-09-08T12:01:43.797Z,2176.88
2018-09-08T12:02:44.225Z,2193.75
2018-09-08T12:03:44.783Z,2216.25
2018-09-08T12:04:45.212Z,2205
2018-09-08T12:05:45.918Z,2205
2018-09-08T12:06:46.624Z,2210.63
2018-09-08T12:07:47.329Z,2221.88
2018-09-08T12:08:48.036Z,2205
2018-09-08T12:09:48.463Z,2131.88
2018-09-08T12:10:50.197Z,2109.38
2018-09-08T12:11:49.344Z,2131.88
2018-09-08T12:12:50.046Z,2154.38
2018-09-08T12:13:51.023Z,2154.38
2018-09-08T12:14:50.160Z,2148.75
2018-09-08T12:15:50.578Z,2103.75
2018-09-08T12:16:51.004Z,2030.63
2018-09-08T12:17:51.153Z,2008.13
2018-09-08T12:18:51.857Z,2058.75
2018-09-08T12:19:52.011Z,2086.88
2018-09-08T12:20:52.435Z,2165.63
2018-09-08T12:21:53.145Z,2176.88
2018-09-08T12:22:53.842Z,2160
2018-09-08T12:23:53.842Z,2103.75
2018-09-08T12:24:53.988Z,2047.5
2018-09-08T12:25:54.693Z,2019.38
2018-09-08T12:26:54.844Z,2030.63
2018-09-08T12:27:55.270Z,2036.25
2018-09-08T12:28:55.698Z,2053.13
2018-09-08T12:29:56.407Z,2070
2018-09-08T12:30:58.014Z,2064.38
2018-09-08T12:31:57.682Z,2019.38
2018-09-08T12:32:57.832Z,1670.63
2018-09-08T12:33:58.837Z,1704.38
2018-09-08T12:34:59.591Z,2030.63
2018-09-08T12:35:59.742Z,2025
2018-09-08T12:37:00.449Z,1839.38
2018-09-08T12:38:00.877Z,1940.63
2018-09-08T12:39:01.439Z,2047.5
2018-09-08T12:40:02.211Z,2036.25
2018-09-08T12:41:02.360Z,1968.75
2018-09-08T12:42:02.509Z,1946.25
2018-09-08T12:43:02.935Z,1974.38
2018-09-08T12:44:03.935Z,1980
2018-09-08T12:45:04.456Z,1974.38
2018-09-08T12:46:04.857Z,1963.13
2018-09-08T12:47:05.005Z,1951.88
2018-09-08T12:48:05.986Z,1895.63
2018-09-08T12:49:06.413Z,1878.75
2018-09-08T12:50:06.841Z,1890
2018-09-08T12:51:07.271Z,1845
2018-09-08T12:52:08.751Z,1845
2018-09-08T12:53:08.736Z,1901.25
2018-09-08T12:54:09.017Z,1968.75
2018-09-08T12:55:09.722Z,1963.13
2018-09-08T12:56:10.436Z,1935
2018-09-08T12:57:10.864Z,1884.38
2018-09-08T12:58:11.011Z,1861.88
2018-09-08T12:59:12.086Z,1839.38
2018-09-08T13:00:12.392Z,1833.75
2018-09-08T13:01:12.548Z,1743.75
2018-09-08T13:02:12.970Z,1788.75
2018-09-08T13:03:13.399Z,1800
2018-09-08T13:04:13.397Z,1828.13
2018-09-08T13:05:13.826Z,1833.75
2018-09-08T13:06:14.530Z,1800
2018-09-08T13:07:15.513Z,1766.25
2018-09-08T13:08:14.937Z,1766.25
2018-09-08T13:09:15.916Z,1704.38
2018-09-08T13:10:15.342Z,1659.38
2018-09-08T13:11:16.046Z,1642.5
2018-09-08T13:12:16.471Z,1625.63
2018-09-08T13:13:16.898Z,1631.25
2018-09-08T13:14:18.752Z,1648.13
2018-09-08T13:15:18.464Z,1603.13
2018-09-08T13:16:18.895Z,1591.88
2018-09-08T13:17:19.597Z,1586.25
2018-09-08T13:18:20.026Z,1603.13
2018-09-08T13:19:20.733Z,1614.38
2018-09-08T13:20:21.156Z,1608.75
2018-09-08T13:21:21.584Z,1580.63
2018-09-08T13:22:22.012Z,1541.25
2018-09-08T13:23:22.436Z,1513.13
2018-09-08T13:24:23.432Z,1524.38
2018-09-08T13:25:23.856Z,1518.75